createdAt,value
2023-02-21T00:01:32.213Z,25.86
2023-02-21T00:03:11.991Z,25.86
2023-02-21T00:04:51.754Z,25.86
2023-02-21T00:06:31.530Z,25.86
2023-02-21T00:08:11.315Z,25.83
2023-02-21T00:09:51.057Z,25.86
2023-02-21T00:11:30.831Z,25.86
2023-02-21T00:13:10.601Z,25.85
2023-02-21T00:14:50.365Z,25.85
2023-02-21T00:16:30.127Z,25.85
2023-02-21T00:18:09.895Z,25.85
2023-02-21T00:19:49.652Z,25.84
2023-02-21T00:21:29.421Z,25.85
2023-02-21T00:23:09.253Z,25.84
2023-02-21T00:24:48.994Z,25.85
2023-02-21T00:26:28.726Z,25.84
2023-02-21T00:28:08.497Z,25.84
2023-02-21T00:29:48.317Z,25.84
2023-02-21T00:31:28.038Z,25.84
2023-02-21T00:33:07.809Z,25.81
2023-02-21T00:34:47.564Z,25.84
2023-02-21T00:36:27.363Z,25.84
2023-02-21T00:38:07.144Z,25.84
2023-02-21T00:39:46.953Z,25.83
2023-02-21T00:41:26.660Z,25.83
2023-02-21T00:43:06.429Z,25.83
2023-02-21T00:44:46.236Z,25.83
2023-02-21T00:46:25.932Z,25.83
2023-02-21T00:48:05.708Z,25.83
2023-02-21T00:49:45.468Z,25.83
2023-02-21T00:51:25.237Z,25.82
2023-02-21T00:53:04.999Z,25.82
2023-02-21T00:54:44.780Z,25.82
2023-02-21T00:56:24.541Z,25.82
2023-02-21T00:58:04.305Z,25.68
2023-02-21T00:59:44.066Z,25.82
2023-02-21T01:01:23.838Z,25.82
2023-02-21T01:03:03.620Z,25.81
2023-02-21T01:04:43.372Z,25.82
2023-02-21T01:06:23.136Z,25.81
2023-02-21T01:08:02.919Z,25.81
2023-02-21T01:09:42.676Z,25.81
2023-02-21T01:11:22.488Z,25.81
2023-02-21T01:13:02.225Z,25.81
2023-02-21T01:14:41.982Z,25.81
2023-02-21T01:16:21.754Z,25.8
2023-02-21T01:18:01.512Z,25.81
2023-02-21T01:19:41.287Z,25.8
2023-02-21T01:21:21.052Z,25.79
2023-02-21T01:23:00.830Z,25.65
2023-02-21T01:24:40.589Z,25.8
2023-02-21T01:26:20.352Z,25.8
2023-02-21T01:28:00.132Z,25.8
2023-02-21T01:29:39.890Z,25.8
2023-02-21T01:31:19.668Z,25.8
2023-02-21T01:32:59.443Z,25.8
2023-02-21T01:34:39.218Z,25.79
2023-02-21T01:36:18.985Z,25.79
2023-02-21T01:37:58.723Z,25.79
2023-02-21T01:39:38.499Z,25.79
2023-02-21T01:41:18.307Z,25.79
2023-02-21T01:42:58.046Z,25.79
2023-02-21T01:44:37.788Z,25.79
2023-02-21T01:46:17.568Z,25.78
2023-02-21T01:47:57.338Z,25.66
2023-02-21T01:49:37.102Z,25.78
2023-02-21T01:51:16.872Z,25.78
2023-02-21T01:52:56.637Z,25.78
2023-02-21T01:54:36.404Z,25.78
2023-02-21T01:56:16.181Z,25.78
2023-02-21T01:57:55.924Z,25.78
2023-02-21T01:59:35.699Z,25.78
2023-02-21T02:01:15.474Z,25.78
2023-02-21T02:02:55.238Z,25.77
2023-02-21T02:04:35.006Z,25.77
2023-02-21T02:06:14.766Z,25.77
2023-02-21T02:07:54.531Z,25.77
2023-02-21T02:09:34.300Z,25.77
2023-02-21T02:11:14.066Z,25.76
2023-02-21T02:12:53.838Z,25.77
2023-02-21T02:14:33.616Z,25.76
2023-02-21T02:16:13.372Z,25.76
2023-02-21T02:17:53.144Z,25.77
2023-02-21T02:19:32.901Z,25.77
2023-02-21T02:21:12.684Z,25.77
2023-02-21T02:22:52.449Z,25.76
2023-02-21T02:24:32.225Z,25.77
2023-02-21T02:26:11.981Z,25.76
2023-02-21T02:27:51.767Z,25.76
2023-02-21T02:29:31.513Z,25.75
2023-02-21T02:31:11.286Z,25.75
2023-02-21T02:32:51.056Z,25.76
2023-02-21T02:34:30.824Z,25.74
2023-02-21T02:36:10.579Z,25.75
2023-02-21T02:37:50.350Z,25.75
2023-02-21T02:39:30.114Z,25.74
2023-02-21T02:41:09.894Z,25.75
2023-02-21T02:42:49.675Z,25.75
2023-02-21T02:44:29.417Z,25.74
2023-02-21T02:46:09.192Z,25.75
2023-02-21T02:47:48.974Z,25.74
2023-02-21T02:49:28.731Z,25.75
2023-02-21T02:51:08.483Z,25.74
2023-02-21T02:52:48.257Z,25.74
2023-02-21T02:54:28.042Z,25.74
2023-02-21T02:56:07.813Z,25.74
2023-02-21T02:57:47.582Z,25.73
2023-02-21T02:59:27.322Z,25.73
2023-02-21T03:01:07.091Z,25.73
2023-02-21T03:02:46.858Z,25.74
2023-02-21T03:04:26.664Z,25.74
2023-02-21T03:06:06.392Z,25.73
2023-02-21T03:07:46.168Z,25.74
2023-02-21T03:09:25.946Z,25.74
2023-02-21T03:11:05.685Z,25.73
2023-02-21T03:12:45.468Z,25.73
2023-02-21T03:14:25.255Z,25.73
2023-02-21T03:16:04.996Z,25.73
2023-02-21T03:17:44.765Z,25.73
2023-02-21T03:19:24.529Z,25.73
2023-02-21T03:21:04.288Z,25.73
2023-02-21T03:22:44.061Z,25.73
2023-02-21T03:24:23.824Z,25.73
2023-02-21T03:26:03.598Z,25.72
2023-02-21T03:27:43.372Z,25.72
2023-02-21T03:29:23.132Z,25.72
2023-02-21T03:31:02.905Z,25.72
2023-02-21T03:32:42.659Z,25.72
2023-02-21T03:34:22.425Z,25.72
2023-02-21T03:36:02.211Z,25.72
2023-02-21T03:37:41.964Z,25.72
2023-02-21T03:39:21.793Z,25.72
2023-02-21T03:41:01.498Z,25.71
2023-02-21T03:42:41.272Z,25.72
2023-02-21T03:44:21.038Z,25.72
2023-02-21T03:46:00.788Z,25.72
2023-02-21T03:47:40.571Z,25.71
2023-02-21T03:49:20.330Z,25.71
2023-02-21T03:51:00.110Z,25.7
2023-02-21T03:52:39.873Z,25.71
2023-02-21T03:54:19.631Z,25.71
2023-02-21T03:55:59.416Z,25.71
2023-02-21T03:57:39.229Z,25.71
2023-02-21T03:59:18.943Z,25.71
2023-02-21T04:00:58.702Z,25.71
2023-02-21T04:02:38.484Z,25.71
2023-02-21T04:04:18.254Z,25.71
2023-02-21T04:05:58.015Z,25.71
2023-02-21T04:07:37.790Z,25.71
2023-02-21T04:09:17.554Z,25.7
2023-02-21T04:10:57.329Z,25.71
2023-02-21T04:12:37.094Z,25.7
2023-02-21T04:14:16.861Z,25.7
2023-02-21T04:15:56.649Z,25.7
2023-02-21T04:17:36.390Z,25.71
2023-02-21T04:19:16.154Z,25.7
2023-02-21T04:20:55.912Z,25.7
2023-02-21T04:22:35.691Z,25.71
2023-02-21T04:24:15.460Z,25.7
2023-02-21T04:25:55.238Z,25.7
2023-02-21T04:27:35.013Z,25.71
2023-02-21T04:29:14.765Z,25.7
2023-02-21T04:30:54.530Z,25.7
2023-02-21T04:32:34.307Z,25.7
2023-02-21T04:34:14.065Z,25.7
2023-02-21T04:35:53.832Z,25.7
2023-02-21T04:37:33.589Z,25.7
2023-02-21T04:39:13.391Z,25.7
2023-02-21T04:40:53.148Z,25.67
2023-02-21T04:42:32.892Z,25.69
2023-02-21T04:44:12.688Z,25.7
2023-02-21T04:45:52.437Z,25.7
2023-02-21T04:47:32.212Z,25.69
2023-02-21T04:49:11.965Z,25.7
2023-02-21T04:50:51.749Z,25.69
2023-02-21T04:52:31.510Z,25.69
2023-02-21T04:54:11.286Z,25.69
2023-02-21T04:55:51.054Z,25.69
2023-02-21T04:57:30.818Z,25.69
2023-02-21T04:59:10.604Z,25.69
2023-02-21T05:00:50.344Z,25.69
2023-02-21T05:02:30.117Z,25.69
2023-02-21T05:04:09.876Z,25.69
2023-02-21T05:05:49.641Z,25.66
2023-02-21T05:07:29.412Z,25.69
2023-02-21T05:09:09.182Z,25.69
2023-02-21T05:10:48.942Z,25.69
2023-02-21T05:12:28.745Z,25.69
2023-02-21T05:14:08.489Z,25.69
2023-02-21T05:15:48.276Z,25.69
2023-02-21T05:17:28.055Z,25.69
2023-02-21T05:19:07.838Z,25.69
2023-02-21T05:20:47.549Z,25.69
2023-02-21T05:22:27.314Z,25.69
2023-02-21T05:24:07.078Z,25.68
2023-02-21T05:25:46.860Z,25.69
2023-02-21T05:27:26.620Z,25.69
2023-02-21T05:29:06.385Z,25.69
2023-02-21T05:30:46.158Z,25.61
2023-02-21T05:32:25.916Z,25.69
2023-02-21T05:34:05.677Z,25.69
2023-02-21T05:35:45.475Z,25.69
2023-02-21T05:37:25.235Z,25.69
2023-02-21T05:39:05.000Z,25.68
2023-02-21T05:40:44.752Z,25.68
2023-02-21T05:42:24.521Z,25.68
2023-02-21T05:44:04.311Z,25.68
2023-02-21T05:45:44.054Z,25.68
2023-02-21T05:47:23.819Z,25.68
2023-02-21T05:49:03.602Z,25.68
2023-02-21T05:50:43.385Z,25.68
2023-02-21T05:52:23.128Z,25.68
2023-02-21T05:54:02.976Z,25.69
2023-02-21T05:55:42.655Z,25.53
2023-02-21T05:57:22.462Z,25.69
2023-02-21T05:59:02.190Z,25.67
2023-02-21T06:00:41.948Z,25.67
2023-02-21T06:02:21.720Z,25.66
2023-02-21T06:04:01.491Z,25.66
2023-02-21T06:05:41.318Z,25.65
2023-02-21T06:07:21.039Z,25.64
2023-02-21T06:09:00.796Z,25.66
2023-02-21T06:10:40.549Z,25.65
2023-02-21T06:12:20.324Z,25.65
2023-02-21T06:14:00.088Z,25.65
2023-02-21T06:15:39.861Z,25.65
2023-02-21T06:17:19.630Z,25.65
2023-02-21T06:18:59.414Z,25.65
2023-02-21T06:20:39.180Z,25.5
2023-02-21T06:22:18.924Z,25.65
2023-02-21T06:23:58.710Z,25.65
2023-02-21T06:25:38.465Z,25.65
2023-02-21T06:27:18.245Z,25.65
2023-02-21T06:28:58.015Z,25.66
2023-02-21T06:30:37.787Z,25.66
2023-02-21T06:32:17.536Z,25.66
2023-02-21T06:33:57.310Z,25.68
2023-02-21T06:35:37.079Z,25.69
2023-02-21T06:37:16.852Z,25.69
2023-02-21T06:38:56.621Z,25.69
2023-02-21T06:40:36.377Z,25.69
2023-02-21T06:42:16.171Z,25.69
2023-02-21T06:43:55.940Z,25.7
2023-02-21T06:45:35.681Z,25.63
2023-02-21T06:47:15.439Z,25.71
2023-02-21T06:48:55.219Z,25.72
2023-02-21T06:50:34.978Z,25.72
2023-02-21T06:52:14.750Z,25.71
2023-02-21T06:53:54.520Z,25.72
2023-02-21T06:55:34.270Z,25.71
2023-02-21T06:57:14.071Z,25.71
2023-02-21T06:58:53.811Z,25.7
2023-02-21T07:00:33.593Z,25.71
2023-02-21T07:02:13.353Z,25.71
2023-02-21T07:03:53.186Z,25.75
2023-02-21T07:05:32.942Z,25.76
2023-02-21T07:07:12.668Z,25.75
2023-02-21T07:08:52.492Z,25.74
2023-02-21T07:10:32.210Z,25.66
2023-02-21T07:12:11.970Z,25.76
2023-02-21T07:13:51.735Z,25.77
2023-02-21T07:15:31.526Z,25.79
2023-02-21T07:17:11.293Z,25.8
2023-02-21T07:18:51.049Z,25.82
2023-02-21T07:20:30.821Z,25.87
2023-02-21T07:22:10.582Z,25.87
2023-02-21T07:23:50.342Z,25.85
2023-02-21T07:25:30.343Z,25.87
2023-02-21T07:27:09.907Z,25.87
2023-02-21T07:28:49.654Z,25.87
2023-02-21T07:30:29.437Z,25.89
2023-02-21T07:32:09.212Z,25.91
2023-02-21T07:33:48.971Z,25.89
2023-02-21T07:35:28.743Z,25.87
2023-02-21T07:37:08.514Z,25.92
2023-02-21T07:38:48.294Z,25.93
2023-02-21T07:40:28.060Z,25.98
2023-02-21T07:42:07.836Z,26.05
2023-02-21T07:43:47.592Z,26.12
2023-02-21T07:45:27.364Z,26.16
2023-02-21T07:47:07.152Z,26.16
2023-02-21T07:48:46.907Z,26.19
2023-02-21T07:50:26.674Z,26.23
2023-02-21T07:52:06.453Z,26.3
2023-02-21T07:53:46.228Z,26.33
2023-02-21T07:55:26.009Z,26.32
2023-02-21T07:57:05.765Z,26.36
2023-02-21T07:58:45.539Z,26.42
2023-02-21T08:00:25.298Z,26.77
2023-02-21T08:02:05.068Z,26.52
2023-02-21T08:03:44.845Z,26.75
2023-02-21T08:05:24.608Z,26.78
2023-02-21T08:07:04.524Z,26.82
2023-02-21T08:08:44.213Z,26.81
2023-02-21T08:10:23.964Z,26.78
2023-02-21T08:12:03.783Z,26.78
2023-02-21T08:13:43.468Z,26.77
2023-02-21T08:15:23.228Z,26.82
2023-02-21T08:17:03.017Z,26.87
2023-02-21T08:18:42.786Z,26.97
2023-02-21T08:20:22.535Z,27.11
2023-02-21T08:22:02.312Z,27.27
2023-02-21T08:23:42.142Z,27.43
2023-02-21T08:25:21.869Z,27.62
2023-02-21T08:27:01.607Z,27.85
2023-02-21T08:28:41.409Z,28.02
2023-02-21T08:30:21.173Z,28.14
2023-02-21T08:32:00.954Z,28.33
2023-02-21T08:33:40.704Z,28.49
2023-02-21T08:35:20.477Z,28.66
2023-02-21T08:37:00.309Z,28.79
2023-02-21T08:38:40.152Z,28.9
2023-02-21T08:40:19.822Z,29.14
2023-02-21T08:41:59.542Z,29.59
2023-02-21T08:43:39.328Z,29.38
2023-02-21T08:45:19.091Z,29.39
2023-02-21T08:46:59.004Z,29.37
2023-02-21T08:48:38.773Z,29.38
2023-02-21T08:50:18.392Z,29.37
2023-02-21T08:51:58.169Z,29.37
2023-02-21T08:53:37.937Z,29.3
2023-02-21T08:55:17.712Z,29.37
2023-02-21T08:56:57.488Z,29.36
2023-02-21T08:58:37.260Z,29.37
2023-02-21T09:00:17.062Z,29.36
2023-02-21T09:01:56.793Z,29.37
2023-02-21T09:03:36.564Z,29.37
2023-02-21T09:05:16.334Z,29.37
2023-02-21T09:06:56.104Z,29.36
2023-02-21T09:08:35.873Z,29.36
2023-02-21T09:10:15.689Z,29.35
2023-02-21T09:11:55.418Z,29.36
2023-02-21T09:13:35.195Z,29.35
2023-02-21T09:15:14.947Z,29.36
2023-02-21T09:16:54.727Z,29.35
2023-02-21T09:18:34.497Z,29.35
2023-02-21T09:20:14.281Z,29.33
2023-02-21T09:21:54.029Z,29.34
2023-02-21T09:23:33.855Z,29.35
2023-02-21T09:25:13.706Z,29.35
2023-02-21T09:26:53.346Z,29.33
2023-02-21T09:28:33.119Z,29.34
2023-02-21T09:30:12.884Z,29.35
2023-02-21T09:31:52.663Z,29.34
2023-02-21T09:33:32.429Z,29.35
2023-02-21T09:35:12.197Z,29.34
2023-02-21T09:36:51.962Z,29.35
2023-02-21T09:38:31.788Z,29.34
2023-02-21T09:40:11.670Z,29.35
2023-02-21T09:41:51.295Z,29.35
2023-02-21T09:43:31.070Z,29.33
2023-02-21T09:45:10.823Z,29.3
2023-02-21T09:46:50.591Z,29.33
2023-02-21T09:48:30.364Z,29.34
2023-02-21T09:50:10.146Z,29.32
2023-02-21T09:51:49.910Z,29.34
2023-02-21T09:53:29.684Z,29.34
2023-02-21T09:55:09.450Z,29.34
2023-02-21T09:56:49.205Z,29.34
2023-02-21T09:58:28.987Z,29.33
2023-02-21T10:00:08.747Z,29.34
2023-02-21T10:01:48.520Z,29.34
2023-02-21T10:03:28.352Z,29.32
2023-02-21T10:05:08.185Z,29.33
2023-02-21T10:06:47.944Z,29.32
2023-02-21T10:08:27.606Z,29.32
2023-02-21T10:10:07.375Z,29.33
2023-02-21T10:11:47.153Z,29.16
2023-02-21T10:13:26.910Z,29.33
2023-02-21T10:15:06.671Z,29.34
2023-02-21T10:16:46.463Z,29.34
2023-02-21T10:18:26.220Z,29.33
2023-02-21T10:20:06.001Z,29.34
2023-02-21T10:21:45.779Z,29.34
2023-02-21T10:23:25.682Z,29.34
2023-02-21T10:25:05.319Z,29.34
2023-02-21T10:26:45.077Z,29.33
2023-02-21T10:28:24.877Z,29.33
2023-02-21T10:30:04.620Z,29.34
2023-02-21T10:31:44.384Z,29.33
2023-02-21T10:33:24.170Z,29.34
2023-02-21T10:35:03.927Z,29.33
2023-02-21T10:36:43.740Z,29.32
2023-02-21T10:38:23.472Z,29.33
2023-02-21T10:40:03.284Z,29.33
2023-02-21T10:41:43.007Z,29.34
2023-02-21T10:43:22.783Z,29.34
2023-02-21T10:45:02.577Z,29.34
2023-02-21T10:46:42.450Z,29.33
2023-02-21T10:48:22.104Z,29.34
2023-02-21T10:50:01.883Z,29.34
2023-02-21T10:51:41.631Z,29.33
2023-02-21T10:53:21.543Z,29.31
2023-02-21T10:55:01.177Z,29.33
2023-02-21T10:56:40.945Z,29.32
2023-02-21T10:58:20.714Z,29.33
2023-02-21T11:00:00.653Z,29.31
2023-02-21T11:01:40.259Z,29.33
2023-02-21T11:03:20.080Z,29.3
2023-02-21T11:04:59.896Z,29.33
2023-02-21T11:06:39.638Z,29.33
2023-02-21T11:08:19.343Z,29.32
2023-02-21T11:09:59.104Z,29.32
2023-02-21T11:11:38.886Z,29.33
2023-02-21T11:13:18.801Z,29.33
2023-02-21T11:14:58.454Z,29.32
2023-02-21T11:16:38.172Z,29.33
2023-02-21T11:18:17.949Z,29.32
2023-02-21T11:19:57.731Z,29.32
2023-02-21T11:21:37.504Z,29.32
2023-02-21T11:23:17.260Z,29.32
2023-02-21T11:24:57.038Z,29.33
2023-02-21T11:26:36.812Z,29.32
2023-02-21T11:28:16.575Z,29.32
2023-02-21T11:29:56.353Z,29.11
2023-02-21T11:31:36.130Z,29.33
2023-02-21T11:33:15.901Z,29.34
2023-02-21T11:34:55.656Z,29.32
2023-02-21T11:36:35.432Z,29.33
2023-02-21T11:38:15.204Z,29.33
2023-02-21T11:39:54.974Z,29.32
2023-02-21T11:41:34.793Z,28.21
2023-02-21T11:43:14.519Z,27.9
2023-02-21T11:44:54.288Z,27.77
2023-02-21T11:46:34.061Z,27.67
2023-02-21T11:48:13.836Z,27.58
2023-02-21T11:49:53.604Z,27.5
2023-02-21T11:51:33.368Z,27.44
2023-02-21T11:53:13.156Z,27.51
2023-02-21T11:54:52.922Z,27.51
2023-02-21T11:56:32.681Z,27.52
2023-02-21T11:58:12.454Z,27.52
2023-02-21T11:59:52.248Z,27.53
2023-02-21T12:01:31.991Z,27.53
2023-02-21T12:03:11.763Z,27.53
2023-02-21T12:04:51.516Z,27.53
2023-02-21T12:06:31.287Z,27.53
2023-02-21T12:08:11.094Z,27.52
2023-02-21T12:09:50.836Z,27.52
2023-02-21T12:11:30.594Z,27.54
2023-02-21T12:13:10.390Z,27.53
2023-02-21T12:14:50.138Z,27.51
2023-02-21T12:16:29.921Z,27.52
2023-02-21T12:18:09.693Z,27.51
2023-02-21T12:19:49.454Z,27.53
2023-02-21T12:21:29.237Z,27.47
2023-02-21T12:23:08.997Z,27.52
2023-02-21T12:24:48.778Z,27.53
2023-02-21T12:26:28.546Z,27.52
2023-02-21T12:28:08.302Z,27.52
2023-02-21T12:29:48.140Z,27.52
2023-02-21T12:31:27.855Z,27.52
2023-02-21T12:33:07.633Z,27.51
2023-02-21T12:34:47.398Z,27.51
2023-02-21T12:36:27.258Z,27.51
2023-02-21T12:38:06.962Z,27.52
2023-02-21T12:39:46.710Z,27.51
2023-02-21T12:41:26.478Z,27.51
2023-02-21T12:43:06.253Z,27.52
2023-02-21T12:44:46.024Z,27.5
2023-02-21T12:46:25.788Z,27.51
2023-02-21T12:48:05.562Z,27.37
2023-02-21T12:49:45.346Z,27.52
2023-02-21T12:51:25.106Z,27.52
2023-02-21T12:53:04.870Z,27.52
2023-02-21T12:54:44.650Z,27.52
2023-02-21T12:56:24.419Z,27.52
2023-02-21T12:58:04.186Z,27.51
2023-02-21T12:59:43.983Z,27.53
2023-02-21T13:01:23.733Z,27.52
2023-02-21T13:03:03.494Z,27.52
2023-02-21T13:04:43.331Z,27.52
2023-02-21T13:06:23.054Z,27.52
2023-02-21T13:08:02.812Z,27.51
2023-02-21T13:09:42.583Z,27.51
2023-02-21T13:11:22.344Z,27.51
2023-02-21T13:13:02.118Z,27.5
2023-02-21T13:14:41.953Z,27.5
2023-02-21T13:16:21.669Z,27.5
2023-02-21T13:18:01.428Z,27.52
2023-02-21T13:19:41.217Z,27.52
2023-02-21T13:21:20.983Z,27.51
2023-02-21T13:23:00.730Z,27.51
2023-02-21T13:24:40.505Z,27.52
2023-02-21T13:26:20.273Z,27.51
2023-02-21T13:28:00.039Z,27.51
2023-02-21T13:29:39.831Z,27.52
2023-02-21T13:31:19.595Z,27.51
2023-02-21T13:32:59.351Z,27.51
2023-02-21T13:34:39.122Z,27.51
2023-02-21T13:36:18.898Z,27.52
2023-02-21T13:37:58.650Z,27.5
2023-02-21T13:39:38.486Z,27.47
2023-02-21T13:41:18.240Z,27.52
2023-02-21T13:42:57.982Z,27.52
2023-02-21T13:44:37.752Z,27.51
2023-02-21T13:46:17.527Z,27.52
2023-02-21T13:47:57.294Z,27.51
2023-02-21T13:49:37.099Z,27.52
2023-02-21T13:51:16.836Z,27.51
2023-02-21T13:52:56.612Z,27.51
2023-02-21T13:54:36.369Z,27.52
2023-02-21T13:56:16.173Z,27.51
2023-02-21T13:57:55.918Z,27.51
2023-02-21T13:59:35.688Z,27.51
2023-02-21T14:01:15.456Z,27.51
2023-02-21T14:02:55.213Z,27.5
2023-02-21T14:04:34.989Z,27.51
2023-02-21T14:06:14.752Z,27.49
2023-02-21T14:07:54.528Z,27.52
2023-02-21T14:09:34.295Z,27.51
2023-02-21T14:11:14.072Z,27.52
2023-02-21T14:12:53.926Z,27.52
2023-02-21T14:14:33.619Z,27.52
2023-02-21T14:16:13.384Z,27.52
2023-02-21T14:17:53.140Z,27.51
2023-02-21T14:19:32.930Z,27.51
2023-02-21T14:21:12.704Z,27.51
2023-02-21T14:22:52.485Z,27.52
2023-02-21T14:24:32.239Z,27.52
2023-02-21T14:26:12.018Z,27.51
2023-02-21T14:27:51.776Z,27.52
2023-02-21T14:29:31.556Z,27.52
2023-02-21T14:31:11.314Z,27.5
2023-02-21T14:32:51.115Z,27.52
2023-02-21T14:34:30.857Z,27.51
2023-02-21T14:36:10.643Z,27.5
2023-02-21T14:37:50.393Z,27.51
2023-02-21T14:39:30.172Z,27.51
2023-02-21T14:41:09.935Z,27.51
2023-02-21T14:42:49.722Z,27.53
2023-02-21T14:44:29.491Z,27.51
2023-02-21T14:46:09.262Z,27.51
2023-02-21T14:47:49.030Z,27.51
2023-02-21T14:49:28.796Z,27.52
2023-02-21T14:51:08.577Z,27.5
2023-02-21T14:52:48.333Z,27.5
2023-02-21T14:54:28.099Z,27.51
2023-02-21T14:56:07.878Z,27.5
2023-02-21T14:57:47.654Z,27.37
2023-02-21T14:59:27.431Z,27.51
2023-02-21T15:01:07.171Z,27.52
2023-02-21T15:02:46.959Z,27.52
2023-02-21T15:04:26.736Z,27.51
2023-02-21T15:06:06.506Z,27.51
2023-02-21T15:07:46.270Z,27.51
2023-02-21T15:09:26.033Z,27.52
2023-02-21T15:11:05.805Z,27.51
2023-02-21T15:12:45.573Z,27.52
2023-02-21T15:14:25.359Z,27.52
2023-02-21T15:16:05.108Z,27.5
2023-02-21T15:17:44.880Z,27.51
2023-02-21T15:19:24.658Z,27.52
2023-02-21T15:21:04.411Z,27.5
2023-02-21T15:22:44.192Z,27.51
2023-02-21T15:24:23.962Z,27.51
2023-02-21T15:26:03.766Z,27.5
2023-02-21T15:27:43.513Z,27.51
2023-02-21T15:29:23.283Z,27.5
2023-02-21T15:31:03.059Z,27.52
2023-02-21T15:32:42.818Z,27.51
2023-02-21T15:34:22.590Z,27.51
2023-02-21T15:36:02.360Z,27.52
2023-02-21T15:37:42.132Z,27.52
2023-02-21T15:39:21.898Z,27.52
2023-02-21T15:41:01.662Z,27.5
2023-02-21T15:42:41.440Z,27.52
2023-02-21T15:44:21.205Z,27.51
2023-02-21T15:46:00.976Z,27.52
2023-02-21T15:47:40.789Z,27.51
2023-02-21T15:49:20.528Z,27.5
2023-02-21T15:51:00.294Z,27.51
2023-02-21T15:52:40.068Z,27.49
2023-02-21T15:54:19.846Z,27.43
2023-02-21T15:55:59.599Z,27.39
2023-02-21T15:57:39.372Z,27.35
2023-02-21T15:59:19.139Z,27.32
2023-02-21T16:00:58.903Z,27.27
2023-02-21T16:02:38.680Z,27.23
2023-02-21T16:04:18.457Z,27.17
2023-02-21T16:05:58.233Z,27.12
2023-02-21T16:07:37.983Z,27.07
2023-02-21T16:09:17.778Z,27.04
2023-02-21T16:10:57.524Z,27
2023-02-21T16:12:37.279Z,26.96
2023-02-21T16:14:17.070Z,26.92
2023-02-21T16:15:56.831Z,26.92
2023-02-21T16:17:36.594Z,26.89
2023-02-21T16:19:16.359Z,26.86
2023-02-21T16:20:56.136Z,26.82
2023-02-21T16:22:35.889Z,26.8
2023-02-21T16:24:15.676Z,26.77
2023-02-21T16:25:55.436Z,26.73
2023-02-21T16:27:35.216Z,26.72
2023-02-21T16:29:14.961Z,26.7
2023-02-21T16:30:54.748Z,26.68
2023-02-21T16:32:34.508Z,26.66
2023-02-21T16:34:14.281Z,26.64
2023-02-21T16:35:54.045Z,26.61
2023-02-21T16:37:33.800Z,26.59
2023-02-21T16:39:13.577Z,26.56
2023-02-21T16:40:53.344Z,26.54
2023-02-21T16:42:33.109Z,26.53
2023-02-21T16:44:12.883Z,26.51
2023-02-21T16:45:52.651Z,26.49
2023-02-21T16:47:32.411Z,26.47
2023-02-21T16:49:12.184Z,26.44
2023-02-21T16:50:51.965Z,26.45
2023-02-21T16:52:31.705Z,26.44
2023-02-21T16:54:11.485Z,26.43
2023-02-21T16:55:51.250Z,26.42
2023-02-21T16:57:31.008Z,26.41
2023-02-21T16:59:10.796Z,26.4
2023-02-21T17:00:50.557Z,26.39
2023-02-21T17:02:30.329Z,26.38
2023-02-21T17:04:10.085Z,26.37
2023-02-21T17:05:49.864Z,26.36
2023-02-21T17:07:29.618Z,26.36
2023-02-21T17:09:09.412Z,26.35
2023-02-21T17:10:49.156Z,26.34
2023-02-21T17:12:28.928Z,26.33
2023-02-21T17:14:08.688Z,26.32
2023-02-21T17:15:48.467Z,26.32
2023-02-21T17:17:28.220Z,26.31
2023-02-21T17:19:07.997Z,26.3
2023-02-21T17:20:47.761Z,26.29
2023-02-21T17:22:27.519Z,26.29
2023-02-21T17:24:07.295Z,26.28
2023-02-21T17:25:47.067Z,26.28
2023-02-21T17:27:26.828Z,26.27
2023-02-21T17:29:06.614Z,26.25
2023-02-21T17:30:46.411Z,26.26
2023-02-21T17:32:26.125Z,26.26
2023-02-21T17:34:05.891Z,26.25
2023-02-21T17:35:45.660Z,26.24
2023-02-21T17:37:25.428Z,26.23
2023-02-21T17:39:05.199Z,26.23
2023-02-21T17:40:44.959Z,26.23
2023-02-21T17:42:24.736Z,26.22
2023-02-21T17:44:04.504Z,26.22
2023-02-21T17:45:44.263Z,26.21
2023-02-21T17:47:24.035Z,26.21
2023-02-21T17:49:03.792Z,26.21
2023-02-21T17:50:43.570Z,26.2
2023-02-21T17:52:23.332Z,26.2
2023-02-21T17:54:03.101Z,26.18
2023-02-21T17:55:42.868Z,26.19
2023-02-21T17:57:22.647Z,26.19
2023-02-21T17:59:02.405Z,26.19
2023-02-21T18:00:42.176Z,26.19
2023-02-21T18:02:21.949Z,26.18
2023-02-21T18:04:01.699Z,26.17
2023-02-21T18:05:41.479Z,26.17
2023-02-21T18:07:21.239Z,26.17
2023-02-21T18:09:01.010Z,26.17
2023-02-21T18:10:40.775Z,26.16
2023-02-21T18:12:20.546Z,26.16
2023-02-21T18:14:00.318Z,26.16
2023-02-21T18:15:40.090Z,26.16
2023-02-21T18:17:19.840Z,26.15
2023-02-21T18:18:59.620Z,26.14
2023-02-21T18:20:39.380Z,26.15
2023-02-21T18:22:19.151Z,26.15
2023-02-21T18:23:58.918Z,26.15
2023-02-21T18:25:38.697Z,26.14
2023-02-21T18:27:18.468Z,26.14
2023-02-21T18:28:58.227Z,26.14
2023-02-21T18:30:37.991Z,26.14
2023-02-21T18:32:17.749Z,26.14
2023-02-21T18:33:57.528Z,26.13
2023-02-21T18:35:37.296Z,26.13
2023-02-21T18:37:17.076Z,26.13
2023-02-21T18:38:56.846Z,26.13
2023-02-21T18:40:36.590Z,26.13
2023-02-21T18:42:16.374Z,26.12
2023-02-21T18:43:56.125Z,26.1
2023-02-21T18:45:35.906Z,26.12
2023-02-21T18:47:15.670Z,26.12
2023-02-21T18:48:55.422Z,26.12
2023-02-21T18:50:35.194Z,26.12
2023-02-21T18:52:14.992Z,26.12
2023-02-21T18:53:54.766Z,26.12
2023-02-21T18:55:34.506Z,26.11
2023-02-21T18:57:14.277Z,26.11
2023-02-21T18:58:54.041Z,26.11
2023-02-21T19:00:33.792Z,26.11
2023-02-21T19:02:13.575Z,26.1
2023-02-21T19:03:53.339Z,26.1
2023-02-21T19:05:33.106Z,26.1
2023-02-21T19:07:12.873Z,26.1
2023-02-21T19:08:52.647Z,26.07
2023-02-21T19:10:32.413Z,26.1
2023-02-21T19:12:12.175Z,26.1
2023-02-21T19:13:51.949Z,26.09
2023-02-21T19:15:31.709Z,26.09
2023-02-21T19:17:11.479Z,26.09
2023-02-21T19:18:51.261Z,26.09
2023-02-21T19:20:31.020Z,26.09
2023-02-21T19:22:10.784Z,26.09
2023-02-21T19:23:50.547Z,26.09
2023-02-21T19:25:30.317Z,26.09
2023-02-21T19:27:10.107Z,26.08
2023-02-21T19:28:49.851Z,26.08
2023-02-21T19:30:29.631Z,26.08
2023-02-21T19:32:09.383Z,26.08
2023-02-21T19:33:49.158Z,26.04
2023-02-21T19:35:28.914Z,26.08
2023-02-21T19:37:08.673Z,26.08
2023-02-21T19:38:48.455Z,26.08
2023-02-21T19:40:28.226Z,26.08
2023-02-21T19:42:07.984Z,26.08
2023-02-21T19:43:47.753Z,26.07
2023-02-21T19:45:27.665Z,26.07
2023-02-21T19:47:07.291Z,26.07
2023-02-21T19:48:47.049Z,26.07
2023-02-21T19:50:26.831Z,26.07
2023-02-21T19:52:06.592Z,26.07
2023-02-21T19:53:46.370Z,26.07
2023-02-21T19:55:26.130Z,26.06
2023-02-21T19:57:05.907Z,26.06
2023-02-21T19:58:45.653Z,25.96
2023-02-21T20:00:25.426Z,26.06
2023-02-21T20:02:05.255Z,26.06
2023-02-21T20:03:44.965Z,26.06
2023-02-21T20:05:24.726Z,26.06
2023-02-21T20:07:04.497Z,26.06
2023-02-21T20:08:44.260Z,26.06
2023-02-21T20:10:24.032Z,26.05
2023-02-21T20:12:03.813Z,26.05
2023-02-21T20:13:43.598Z,26.05
2023-02-21T20:15:23.347Z,26.05
2023-02-21T20:17:03.113Z,26.05
2023-02-21T20:18:42.872Z,26.05
2023-02-21T20:20:22.636Z,26.05
2023-02-21T20:22:02.406Z,26.05
2023-02-21T20:23:42.176Z,25.88
2023-02-21T20:25:21.944Z,26.04
2023-02-21T20:27:01.711Z,26.04
2023-02-21T20:28:41.478Z,26.04
2023-02-21T20:30:21.254Z,26.04
2023-02-21T20:32:01.027Z,26.04
2023-02-21T20:33:40.772Z,26.04
2023-02-21T20:35:20.546Z,26.04
2023-02-21T20:37:00.313Z,26.04
2023-02-21T20:38:40.072Z,26.04
2023-02-21T20:40:19.846Z,26.04
2023-02-21T20:41:59.623Z,26.04
2023-02-21T20:43:39.382Z,26.04
2023-02-21T20:45:19.149Z,26.03
2023-02-21T20:46:58.923Z,26.03
2023-02-21T20:48:38.680Z,25.91
2023-02-21T20:50:18.445Z,26.03
2023-02-21T20:51:58.221Z,26.03
2023-02-21T20:53:37.981Z,26.03
2023-02-21T20:55:17.751Z,26.03
2023-02-21T20:56:57.530Z,26.03
2023-02-21T20:58:37.285Z,26.03
2023-02-21T21:00:17.060Z,26.03
2023-02-21T21:01:56.834Z,26.03
2023-02-21T21:03:36.660Z,26.02
2023-02-21T21:05:16.362Z,26.02
2023-02-21T21:06:56.124Z,26.02
2023-02-21T21:08:35.921Z,26.02
2023-02-21T21:10:15.694Z,26.02
2023-02-21T21:11:55.419Z,26.01
2023-02-21T21:13:35.195Z,25.92
2023-02-21T21:15:14.956Z,26.02
2023-02-21T21:16:54.722Z,26.02
2023-02-21T21:18:34.499Z,26.02
2023-02-21T21:20:14.254Z,26.01
2023-02-21T21:21:54.020Z,26.01
2023-02-21T21:23:33.842Z,26.01
2023-02-21T21:25:13.568Z,26.01
2023-02-21T21:26:53.327Z,26.01
2023-02-21T21:28:33.117Z,26.01